Observation data for Northfield on 04/09/2020      Previous  Date  Next       Current Mesonet Observations  Soil Data  Daily Summary Page  Observations in Plain Language
KNOR 090500Z 04008KT 20/03 A2995 RMK A01 T01970032  RH  034%=      5-min Rain = 0
KNOR 090505Z 04007KT 20/03 A2995 RMK A01 T01960033  RH  035%=      5-min Rain = 0
KNOR 090510Z 04007KT 19/04 A2995 RMK A01 T01940035  RH  036%=      5-min Rain = 0
KNOR 090515Z 04007KT 19/04 A2995 RMK A01 T01930037  RH  036%=      5-min Rain = 0
KNOR 090520Z 05007KT 19/04 A2995 RMK A01 T01910037  RH  037%=      5-min Rain = 0
KNOR 090525Z 05007KT 19/04 A2995 RMK A01 T01900039  RH  038%=      5-min Rain = 0
KNOR 090530Z 05007KT 19/04 A2996 RMK A01 T01890040  RH  038%=      5-min Rain = 0
KNOR 090535Z 05008KT 19/04 A2996 RMK A01 T01880041  RH  039%=      5-min Rain = 0
KNOR 090540Z 05009KT 19/04 A2996 RMK A01 T01890044  RH  039%=      5-min Rain = 0
KNOR 090545Z 06009KT 19/05 A2996 RMK A01 T01940048  RH  039%=      5-min Rain = 0
KNOR 090550Z 06009KT 19/05 A2996 RMK A01 T01930052  RH  040%=      5-min Rain = 0
KNOR 090555Z 07009KT 20/05 A2996 RMK A01 T01950054  RH  040%=      5-min Rain = 0
KNOR 090600Z 06008KT 19/06 A2996 RMK A01 T01930055  RH  041%=      5-min Rain = 0
KNOR 090605Z 06008KT 19/06 A2996 RMK A01 T01900056  RH  042%=      5-min Rain = 0
KNOR 090610Z 07007KT 19/06 A2996 RMK A01 T01870056  RH  043%=      5-min Rain = 0
KNOR 090615Z 06007KT 18/06 A2996 RMK A01 T01840056  RH  044%=      5-min Rain = 0
KNOR 090620Z 07007KT 18/06 A2996 RMK A01 T01820056  RH  045%=      5-min Rain = 0
KNOR 090625Z 08007KT 18/06 A2996 RMK A01 T01810057  RH  045%=      5-min Rain = 0
KNOR 090630Z 09007KT 18/06 A2996 RMK A01 T01800058  RH  046%=      5-min Rain = 0
KNOR 090635Z 10006KT 18/06 A2996 RMK A01 T01760059  RH  047%=      5-min Rain = 0
KNOR 090640Z 08007KT 18/06 A2997 RMK A01 T01770059  RH  047%=      5-min Rain = 0
KNOR 090645Z 08008KT 18/06 A2996 RMK A01 T01800056  RH  045%=      5-min Rain = 0
KNOR 090650Z 08008KT 18/05 A2996 RMK A01 T01830053  RH  044%=      5-min Rain = 0
KNOR 090655Z 08007KT 18/05 A2996 RMK A01 T01810053  RH  044%=      5-min Rain = 0
KNOR 090700Z 07007KT 18/05 A2996 RMK A01 T01800052  RH  044%=      5-min Rain = 0
KNOR 090705Z 08007KT 18/05 A2996 RMK A01 T01780051  RH  044%=      5-min Rain = 0
KNOR 090710Z 07007KT 18/05 A2996 RMK A01 T01770050  RH  044%=      5-min Rain = 0
KNOR 090715Z 07007KT 18/05 A2995 RMK A01 T01760050  RH  044%=      5-min Rain = 0
KNOR 090720Z 08006KT 18/05 A2995 RMK A01 T01750050  RH  045%=      5-min Rain = 0
KNOR 090725Z 08006KT 17/05 A2995 RMK A01 T01720050  RH  045%=      5-min Rain = 0
KNOR 090730Z 08005KT 17/05 A2995 RMK A01 T01700050  RH  046%=      5-min Rain = 0
KNOR 090735Z 08005KT 17/05 A2995 RMK A01 T01680049  RH  046%=      5-min Rain = 0
KNOR 090740Z 08005KT 17/05 A2995 RMK A01 T01670050  RH  047%=      5-min Rain = 0
KNOR 090745Z 09005KT 17/05 A2995 RMK A01 T01680050  RH  046%=      5-min Rain = 0
KNOR 090750Z 09006KT 17/05 A2995 RMK A01 T01710049  RH  045%=      5-min Rain = 0
KNOR 090755Z 09007KT 17/05 A2995 RMK A01 T01730048  RH  045%=      5-min Rain = 0
KNOR 090800Z 09007KT 17/05 A2995 RMK A01 T01730047  RH  044%=      5-min Rain = 0
KNOR 090805Z 09006KT 17/05 A2995 RMK A01 T01720046  RH  044%=      5-min Rain = 0
KNOR 090810Z 08006KT 17/05 A2995 RMK A01 T01690046  RH  045%=      5-min Rain = 0
KNOR 090815Z 07005KT 17/05 A2995 RMK A01 T01670046  RH  046%=      5-min Rain = 0
KNOR 090820Z 07005KT 17/05 A2995 RMK A01 T01650046  RH  046%=      5-min Rain = 0
KNOR 090825Z 06005KT 16/05 A2995 RMK A01 T01640046  RH  046%=      5-min Rain = 0
KNOR 090830Z 07005KT 16/05 A2995 RMK A01 T01630046  RH  046%=      5-min Rain = 0
KNOR 090835Z 07004KT 16/05 A2995 RMK A01 T01630045  RH  046%=      5-min Rain = 0
KNOR 090840Z 06003KT 16/04 A2995 RMK A01 T01640044  RH  046%=      5-min Rain = 0
KNOR 090845Z 05002KT 16/04 A2995 RMK A01 T01620044  RH  046%=      5-min Rain = 0
KNOR 090850Z 32000KT 15/05 A2995 RMK A01 T01470046  RH  052%=      5-min Rain = 0
KNOR 090855Z 29002KT 15/05 A2995 RMK A01 T01470049  RH  053%=      5-min Rain = 0
KNOR 090900Z 26004KT 14/05 A2995 RMK A01 T01420050  RH  055%=      5-min Rain = 0
KNOR 090905Z 27003KT 14/05 A2995 RMK A01 T01390050  RH  056%=      5-min Rain = 0
KNOR 090910Z 27002KT 14/05 A2995 RMK A01 T01420049  RH  055%=      5-min Rain = 0
KNOR 090915Z 26003KT 15/05 A2996 RMK A01 T01480048  RH  052%=      5-min Rain = 0
KNOR 090920Z 24003KT 15/05 A2995 RMK A01 T01510047  RH  051%=      5-min Rain = 0
KNOR 090925Z 23003KT 15/05 A2995 RMK A01 T01480047  RH  052%=      5-min Rain = 0
KNOR 090930Z 24003KT 15/05 A2995 RMK A01 T01480047  RH  052%=      5-min Rain = 0
KNOR 090935Z 25003KT 15/05 A2995 RMK A01 T01490046  RH  051%=      5-min Rain = 0
KNOR 090940Z 25003KT 15/05 A2995 RMK A01 T01500046  RH  051%=      5-min Rain = 0
KNOR 090945Z 25004KT 15/05 A2995 RMK A01 T01490046  RH  051%=      5-min Rain = 0
KNOR 090950Z 25004KT 15/05 A2995 RMK A01 T01480046  RH  051%=      5-min Rain = 0
KNOR 090955Z 26003KT 15/05 A2995 RMK A01 T01460045  RH  052%=      5-min Rain = 0
KNOR 091000Z 26002KT 15/05 A2995 RMK A01 T01460045  RH  052%=      5-min Rain = 0
KNOR 091005Z 27002KT 15/05 A2995 RMK A01 T01450045  RH  052%=      5-min Rain = 0
KNOR 091010Z 30002KT 15/05 A2995 RMK A01 T01480045  RH  051%=      5-min Rain = 0
KNOR 091015Z 31003KT 15/05 A2995 RMK A01 T01500046  RH  051%=      5-min Rain = 0
KNOR 091020Z 34004KT 15/05 A2995 RMK A01 T01500046  RH  051%=      5-min Rain = 0
KNOR 091025Z 34003KT 15/05 A2995 RMK A01 T01470046  RH  052%=      5-min Rain = 0
KNOR 091030Z 36003KT 15/05 A2995 RMK A01 T01450047  RH  053%=      5-min Rain = 0
KNOR 091035Z 00004KT 14/05 A2995 RMK A01 T01430047  RH  054%=      5-min Rain = 0
KNOR 091040Z 02004KT 14/05 A2995 RMK A01 T01420048  RH  054%=      5-min Rain = 0
KNOR 091045Z 02004KT 14/05 A2995 RMK A01 T01440047  RH  053%=      5-min Rain = 0
KNOR 091050Z 03005KT 14/05 A2995 RMK A01 T01420048  RH  054%=      5-min Rain = 0
KNOR 091055Z 03005KT 14/05 A2995 RMK A01 T01390048  RH  055%=      5-min Rain = 0
KNOR 091100Z 03005KT 14/05 A2996 RMK A01 T01380048  RH  056%=      5-min Rain = 0
KNOR 091105Z 03005KT 14/05 A2996 RMK A01 T01380047  RH  055%=      5-min Rain = 0
KNOR 091110Z 02004KT 14/05 A2996 RMK A01 T01390046  RH  054%=      5-min Rain = 0
KNOR 091115Z 03004KT 14/04 A2996 RMK A01 T01410044  RH  053%=      5-min Rain = 0
KNOR 091120Z 03003KT 14/04 A2996 RMK A01 T01400044  RH  053%=      5-min Rain = 0
KNOR 091125Z 02003KT 14/04 A2997 RMK A01 T01400043  RH  053%=      5-min Rain = 0
KNOR 091130Z 03004KT 14/04 A2997 RMK A01 T01400043  RH  053%=      5-min Rain = 0
KNOR 091135Z 03004KT 14/04 A2997 RMK A01 T01420042  RH  052%=      5-min Rain = 0
KNOR 091140Z 03004KT 14/04 A2997 RMK A01 T01410042  RH  052%=      5-min Rain = 0
KNOR 091145Z 03005KT 14/04 A2997 RMK A01 T01370043  RH  054%=      5-min Rain = 0
KNOR 091150Z 03004KT 13/04 A2998 RMK A01 T01330044  RH  056%=      5-min Rain = 0
KNOR 091155Z 02005KT 13/04 A2998 RMK A01 T01330044  RH  056%=      5-min Rain = 0
KNOR 091200Z 02005KT 13/05 A2998 RMK A01 T01330046  RH  057%=      5-min Rain = 0
KNOR 091205Z 01005KT 13/05 A2998 RMK A01 T01330048  RH  057%=      5-min Rain = 0
KNOR 091210Z 01005KT 13/05 A2998 RMK A01 T01300048  RH  059%=      5-min Rain = 0
KNOR 091215Z 01006KT 13/05 A2998 RMK A01 T01270048  RH  060%=      5-min Rain = 0
KNOR 091220Z 35005KT 12/05 A2999 RMK A01 T01240050  RH  062%=      5-min Rain = 0
KNOR 091225Z 35005KT 12/05 A2999 RMK A01 T01200051  RH  064%=      5-min Rain = 0
KNOR 091230Z 35005KT 12/05 A2999 RMK A01 T01190051  RH  065%=      5-min Rain = 0
KNOR 091235Z 01005KT 12/05 A30 RMK A01 T01200051  RH  064%=      5-min Rain = 0
KNOR 091240Z 01005KT 12/05 A30 RMK A01 T01220050  RH  063%=      5-min Rain = 0
KNOR 091245Z 02005KT 12/05 A3001 RMK A01 T01240050  RH  062%=      5-min Rain = 0
KNOR 091250Z 02005KT 13/05 A3002 RMK A01 T01250051  RH  062%=      5-min Rain = 0
KNOR 091255Z 02006KT 13/05 A3002 RMK A01 T01250052  RH  062%=      5-min Rain = 0
KNOR 091300Z 03006KT 13/05 A3002 RMK A01 T01260052  RH  062%=      5-min Rain = 0
KNOR 091305Z 03005KT 13/05 A3002 RMK A01 T01260054  RH  063%=      5-min Rain = 0
KNOR 091310Z 03006KT 13/06 A3002 RMK A01 T01260055  RH  063%=      5-min Rain = 0
KNOR 091315Z 03006KT 13/06 A3002 RMK A01 T01270055  RH  063%=      5-min Rain = 0
KNOR 091320Z 03006KT 13/06 A3002 RMK A01 T01290055  RH  062%=      5-min Rain = 0
KNOR 091325Z 03006KT 13/06 A3003 RMK A01 T01310055  RH  061%=      5-min Rain = 0
KNOR 091330Z 02006KT 13/06 A3003 RMK A01 T01330055  RH  061%=      5-min Rain = 0
KNOR 091335Z 02006KT 13/06 A3003 RMK A01 T01340055  RH  060%=      5-min Rain = 0
KNOR 091340Z 02007KT 13/06 A3004 RMK A01 T01340055  RH  060%=      5-min Rain = 0
KNOR 091345Z 03008KT 14/06 A3004 RMK A01 T01360055  RH  059%=      5-min Rain = 0
KNOR 091350Z 03008KT 14/06 A3004 RMK A01 T01370056  RH  059%=      5-min Rain = 0
KNOR 091355Z 03008KT 14/06 A3005 RMK A01 T01390057  RH  059%=      5-min Rain = 0
KNOR 091400Z 03009KT 14/06 A3005 RMK A01 T01400057  RH  058%=      5-min Rain = 0
KNOR 091405Z 03010KT 14/06 A3005 RMK A01 T01420057  RH  058%=      5-min Rain = 0
KNOR 091410Z 04010KT 14/06 A3005 RMK A01 T01430057  RH  057%=      5-min Rain = 0
KNOR 091415Z 04011KT 14/06 A3004 RMK A01 T01440057  RH  057%=      5-min Rain = 0
KNOR 091420Z 04012KT 15/06 A3004 RMK A01 T01450058  RH  057%=      5-min Rain = 0
KNOR 091425Z 04011G17KT 15/06 A3004 RMK A01 T01450058  RH  057%=      5-min Rain = 0
KNOR 091430Z 04011G16KT 15/06 A3005 RMK A01 T01450058  RH  057%=      5-min Rain = 0
KNOR 091435Z 03010KT 15/06 A3006 RMK A01 T01460058  RH  057%=      5-min Rain = 0
KNOR 091440Z 04010G15KT 15/06 A3006 RMK A01 T01480058  RH  056%=      5-min Rain = 0
KNOR 091445Z 04010G15KT 15/06 A3006 RMK A01 T01500059  RH  056%=      5-min Rain = 0
KNOR 091450Z 04011KT 15/06 A3006 RMK A01 T01520059  RH  055%=      5-min Rain = 0
KNOR 091455Z 04012KT 15/06 A3006 RMK A01 T01530059  RH  055%=      5-min Rain = 0
KNOR 091500Z 04013KT 15/06 A3006 RMK A01 T01520058  RH  055%=      5-min Rain = 0
KNOR 091505Z 04010KT 16/06 A3006 RMK A01 T01580061  RH  054%=      5-min Rain = 0
KNOR 091510Z 04013KT 16/06 A3006 RMK A01 T01580060  RH  053%=      5-min Rain = 0
KNOR 091515Z 04012KT 16/06 A3006 RMK A01 T01560059  RH  054%=      5-min Rain = 0
KNOR 091520Z 04013KT 15/06 A3006 RMK A01 T01540058  RH  054%=      5-min Rain = 0
KNOR 091525Z 04011G17KT 15/06 A3006 RMK A01 T01540059  RH  054%=      5-min Rain = 0
KNOR 091530Z 04012KT 15/06 A3006 RMK A01 T01520058  RH  055%=      5-min Rain = 0
KNOR 091535Z 04011G17KT 16/06 A3007 RMK A01 T01560060  RH  054%=      5-min Rain = 0
KNOR 091540Z 03013KT 16/06 A3007 RMK A01 T01550059  RH  054%=      5-min Rain = 0
KNOR 091545Z 04013KT 16/06 A3007 RMK A01 T01550058  RH  054%=      5-min Rain = 0
KNOR 091550Z 04014KT 15/06 A3007 RMK A01 T01530057  RH  054%=      5-min Rain = 0
KNOR 091555Z 04013KT 16/06 A3007 RMK A01 T01550058  RH  054%=      5-min Rain = 0
KNOR 091600Z 03012G18KT 16/06 A3007 RMK A01 T01560059  RH  054%=      5-min Rain = 0
KNOR 091605Z 04013G18KT 16/06 A3006 RMK A01 T01550058  RH  054%=      5-min Rain = 0
KNOR 091610Z 04012G17KT 16/06 A3006 RMK A01 T01570059  RH  053%=      5-min Rain = 0
KNOR 091615Z 04013KT 16/06 A3006 RMK A01 T01600059  RH  052%=      5-min Rain = 0
KNOR 091620Z 04013KT 16/06 A3006 RMK A01 T01620060  RH  052%=      5-min Rain = 0
KNOR 091625Z 05011G17KT 16/06 A3006 RMK A01 T01630060  RH  052%=      5-min Rain = 0
KNOR 091630Z 05014KT 16/06 A3006 RMK A01 T01610059  RH  052%=      5-min Rain = 0
KNOR 091635Z 05012G17KT 16/06 A3006 RMK A01 T01630060  RH  052%=      5-min Rain = 0
KNOR 091640Z 04012KT 17/06 A3006 RMK A01 T01670061  RH  051%=      5-min Rain = 0
KNOR 091645Z 05011G16KT 17/06 A3006 RMK A01 T01690060  RH  050%=      5-min Rain = 0
KNOR 091650Z 04013G18KT 17/06 A3006 RMK A01 T01670059  RH  050%=      5-min Rain = 0
KNOR 091655Z 04013KT 17/06 A3006 RMK A01 T01670059  RH  050%=      5-min Rain = 0
KNOR 091700Z 04012KT 17/06 A3006 RMK A01 T01690059  RH  049%=      5-min Rain = 0
KNOR 091705Z 05011G17KT 17/06 A3006 RMK A01 T01720060  RH  049%=      5-min Rain = 0
KNOR 091710Z 05011G18KT 17/06 A3006 RMK A01 T01720058  RH  048%=      5-min Rain = 0
KNOR 091715Z 07011G18KT 18/06 A3006 RMK A01 T01770058  RH  046%=      5-min Rain = 0
KNOR 091720Z 05010G16KT 18/06 A3006 RMK A01 T01790059  RH  046%=      5-min Rain = 0
KNOR 091725Z 07011KT 18/06 A3006 RMK A01 T01760057  RH  046%=      5-min Rain = 0
KNOR 091730Z 05011KT 18/06 A3006 RMK A01 T01780059  RH  047%=      5-min Rain = 0
KNOR 091735Z 06011G16KT 18/06 A3006 RMK A01 T01780059  RH  047%=      5-min Rain = 0
KNOR 091740Z 05011G16KT 18/06 A3005 RMK A01 T01820061  RH  046%=      5-min Rain = 0
KNOR 091745Z 05012G22KT 18/06 A3005 RMK A01 T01800059  RH  046%=      5-min Rain = 0
KNOR 091750Z 06011G16KT 18/06 A3005 RMK A01 T01790058  RH  046%=      5-min Rain = 0
KNOR 091755Z 04012G17KT 18/06 A3005 RMK A01 T01800059  RH  046%=      5-min Rain = 0
KNOR 091800Z 07011G17KT 18/06 A3005 RMK A01 T01810057  RH  045%=      5-min Rain = 0
KNOR 091805Z 07010G15KT 18/06 A3004 RMK A01 T01820057  RH  045%=      5-min Rain = 0
KNOR 091810Z 06010KT 19/06 A3004 RMK A01 T01850059  RH  044%=      5-min Rain = 0
KNOR 091815Z 06009KT 18/06 A3004 RMK A01 T01830058  RH  045%=      5-min Rain = 0
KNOR 091820Z 07010KT 18/06 A3004 RMK A01 T01810056  RH  045%=      5-min Rain = 0
KNOR 091825Z 06009G15KT 18/06 A3004 RMK A01 T01810057  RH  045%=      5-min Rain = 0
KNOR 091830Z 05010G15KT 18/06 A3004 RMK A01 T01780057  RH  046%=      5-min Rain = 0
KNOR 091835Z 06010G15KT 18/06 A3004 RMK A01 T01800059  RH  046%=      5-min Rain = 0
KNOR 091840Z 05009G14KT 18/06 A3004 RMK A01 T01810059  RH  046%=      5-min Rain = 0
KNOR 091845Z 06009G14KT 18/06 A3004 RMK A01 T01790058  RH  046%=      5-min Rain = 0
KNOR 091850Z 05009G14KT 18/06 A3005 RMK A01 T01790059  RH  046%=      5-min Rain = 0
KNOR 091855Z 05007KT 18/06 A3005 RMK A01 T01770058  RH  047%=      5-min Rain = 0
KNOR 091900Z 03008KT 18/06 A3005 RMK A01 T01780059  RH  047%=      5-min Rain = 0
KNOR 091905Z 05008G13KT 18/06 A3005 RMK A01 T01810061  RH  046%=      5-min Rain = 0
KNOR 091910Z 04007KT 18/06 A3005 RMK A01 T01820060  RH  046%=      5-min Rain = 0
KNOR 091915Z 05007KT 18/06 A3005 RMK A01 T01820062  RH  046%=      5-min Rain = 0
KNOR 091920Z 06008KT 18/06 A3004 RMK A01 T01840062  RH  046%=      5-min Rain = 0
KNOR 091925Z 06008KT 18/06 A3004 RMK A01 T01830060  RH  046%=      5-min Rain = 0
KNOR 091930Z 05007G12KT 18/06 A3004 RMK A01 T01820061  RH  046%=      5-min Rain = 0
KNOR 091935Z 07008KT 18/06 A3004 RMK A01 T01830061  RH  046%=      5-min Rain = 0
KNOR 091940Z 05008KT 18/06 A3004 RMK A01 T01830061  RH  046%=      5-min Rain = 0
KNOR 091945Z 05008G13KT 18/06 A3004 RMK A01 T01840061  RH  045%=      5-min Rain = 0
KNOR 091950Z 06009KT 18/06 A3004 RMK A01 T01820059  RH  046%=      5-min Rain = 0
KNOR 091955Z 04009KT 18/06 A3004 RMK A01 T01840058  RH  045%=      5-min Rain = 0
KNOR 092000Z 05008G13KT 18/06 A3003 RMK A01 T01840057  RH  044%=      5-min Rain = 0
KNOR 092005Z 05007G12KT 19/06 A3003 RMK A01 T01860056  RH  044%=      5-min Rain = 0
KNOR 092010Z 04009KT 19/05 A3003 RMK A01 T01860054  RH  043%=      5-min Rain = 0
KNOR 092015Z 04009G14KT 19/05 A3003 RMK A01 T01880054  RH  042%=      5-min Rain = 0
KNOR 092020Z 05010KT 19/06 A3002 RMK A01 T01910055  RH  042%=      5-min Rain = 0
KNOR 092025Z 05008KT 19/05 A3002 RMK A01 T01920053  RH  041%=      5-min Rain = 0
KNOR 092030Z 08009KT 19/05 A3001 RMK A01 T01930052  RH  040%=      5-min Rain = 0
KNOR 092035Z 08006KT 19/05 A3001 RMK A01 T01940052  RH  040%=      5-min Rain = 0
KNOR 092040Z 06007KT 20/05 A3001 RMK A01 T01980053  RH  040%=      5-min Rain = 0
KNOR 092045Z 09007KT 19/05 A3001 RMK A01 T01930051  RH  040%=      5-min Rain = 0
KNOR 092050Z 09006KT 19/05 A3001 RMK A01 T01940051  RH  040%=      5-min Rain = 0
KNOR 092055Z 06005KT 20/05 A3001 RMK A01 T01960051  RH  039%=      5-min Rain = 0
KNOR 092100Z 04008KT 20/05 A3001 RMK A01 T01970051  RH  039%=      5-min Rain = 0
KNOR 092105Z 06007G12KT 20/05 A30 RMK A01 T01970051  RH  039%=      5-min Rain = 0
KNOR 092110Z 08006KT 19/05 A30 RMK A01 T01940051  RH  040%=      5-min Rain = 0
KNOR 092115Z 07008KT 19/05 A30 RMK A01 T01940050  RH  040%=      5-min Rain = 0
KNOR 092120Z 05008G13KT 20/05 A30 RMK A01 T01950049  RH  039%=      5-min Rain = 0
KNOR 092125Z 05008KT 20/05 A30 RMK A01 T01950050  RH  039%=      5-min Rain = 0
KNOR 092130Z 06009KT 20/05 A30 RMK A01 T01950049  RH  039%=      5-min Rain = 0
KNOR 092135Z 05008KT 20/05 A30 RMK A01 T02020053  RH  039%=      5-min Rain = 0
KNOR 092140Z 06010KT 20/05 A2999 RMK A01 T01990048  RH  038%=      5-min Rain = 0
KNOR 092145Z 06008G15KT 20/05 A2999 RMK A01 T01970049  RH  039%=      5-min Rain = 0
KNOR 092150Z 05009KT 19/05 A2999 RMK A01 T01940048  RH  039%=      5-min Rain = 0
KNOR 092155Z 05009KT 20/05 A2999 RMK A01 T01950049  RH  039%=      5-min Rain = 0
KNOR 092200Z 05008G13KT 20/05 A2999 RMK A01 T01980049  RH  038%=      5-min Rain = 0
KNOR 092205Z 06008KT 20/05 A2998 RMK A01 T01970047  RH  038%=      5-min Rain = 0
KNOR 092210Z 06009KT 20/05 A2998 RMK A01 T01980047  RH  038%=      5-min Rain = 0
KNOR 092215Z 07008KT 20/05 A2998 RMK A01 T01960046  RH  038%=      5-min Rain = 0
KNOR 092220Z 06008G13KT 19/04 A2998 RMK A01 T01930044  RH  038%=      5-min Rain = 0
KNOR 092225Z 07008G13KT 19/05 A2998 RMK A01 T01930045  RH  038%=      5-min Rain = 0
KNOR 092230Z 07009KT 19/04 A2998 RMK A01 T01910043  RH  038%=      5-min Rain = 0
KNOR 092235Z 07007G12KT 19/04 A2998 RMK A01 T01900044  RH  039%=      5-min Rain = 0
KNOR 092240Z 08009KT 19/04 A2998 RMK A01 T01890042  RH  038%=      5-min Rain = 0
KNOR 092245Z 08008G13KT 19/04 A2998 RMK A01 T01880040  RH  038%=      5-min Rain = 0
KNOR 092250Z 08009KT 19/04 A2998 RMK A01 T01870042  RH  039%=      5-min Rain = 0
KNOR 092255Z 08008KT 19/04 A2998 RMK A01 T01860043  RH  040%=      5-min Rain = 0
KNOR 092300Z 10007KT 19/05 A2998 RMK A01 T01860045  RH  040%=      5-min Rain = 0
KNOR 092305Z 09007KT 19/04 A2998 RMK A01 T01860044  RH  040%=      5-min Rain = 0
KNOR 092310Z 07008KT 19/04 A2999 RMK A01 T01860044  RH  040%=      5-min Rain = 0
KNOR 092315Z 08006KT 19/05 A2999 RMK A01 T01860045  RH  040%=      5-min Rain = 0
KNOR 092320Z 10007KT 19/05 A2999 RMK A01 T01860047  RH  041%=      5-min Rain = 0
KNOR 092325Z 10006KT 19/05 A2999 RMK A01 T01870049  RH  041%=      5-min Rain = 0
KNOR 092330Z 10006KT 19/05 A2999 RMK A01 T01880048  RH  041%=      5-min Rain = 0
KNOR 092335Z 10006KT 19/05 A2999 RMK A01 T01870049  RH  041%=      5-min Rain = 0
KNOR 092340Z 11006KT 19/05 A2999 RMK A01 T01870051  RH  042%=      5-min Rain = 0
KNOR 092345Z 09005KT 19/05 A2999 RMK A01 T01880051  RH  041%=      5-min Rain = 0
KNOR 092350Z 10007KT 19/05 A2999 RMK A01 T01870050  RH  041%=      5-min Rain = 0
KNOR 092355Z 10007KT 19/05 A2999 RMK A01 T01870050  RH  041%=      5-min Rain = 0
KNOR 100000Z 08007G13KT 19/05 A2999 RMK A01 T01870048  RH  041%=      5-min Rain = 0
KNOR 100005Z 07010KT 18/04 A30 RMK A01 T01840044  RH  040%=      5-min Rain = 0
KNOR 100010Z 07011KT 18/04 A30 RMK A01 T01820043  RH  040%=      5-min Rain = 0
KNOR 100015Z 07010KT 18/04 A30 RMK A01 T01810042  RH  040%=      5-min Rain = 0
KNOR 100020Z 07010KT 18/04 A30 RMK A01 T01800042  RH  041%=      5-min Rain = 0
KNOR 100025Z 07010KT 18/04 A30 RMK A01 T01790041  RH  041%=      5-min Rain = 0
KNOR 100030Z 07009KT 18/04 A30 RMK A01 T01780041  RH  041%=      5-min Rain = 0
KNOR 100035Z 07010KT 18/04 A30 RMK A01 T01770040  RH  041%=      5-min Rain = 0
KNOR 100040Z 07010KT 18/04 A3001 RMK A01 T01750040  RH  041%=      5-min Rain = 0
KNOR 100045Z 07009G14KT 17/04 A3001 RMK A01 T01740039  RH  042%=      5-min Rain = 0
KNOR 100050Z 06009G14KT 17/04 A3001 RMK A01 T01720039  RH  042%=      5-min Rain = 0
KNOR 100055Z 06008KT 17/04 A3001 RMK A01 T01700039  RH  042%=      5-min Rain = 0
KNOR 100100Z 06008KT 17/04 A3001 RMK A01 T01690039  RH  043%=      5-min Rain = 0
KNOR 100105Z 06008KT 17/04 A3001 RMK A01 T01670039  RH  043%=      5-min Rain = 0
KNOR 100110Z 07009KT 17/04 A3001 RMK A01 T01660037  RH  043%=      5-min Rain = 0
KNOR 100115Z 07007KT 16/04 A3001 RMK A01 T01640037  RH  043%=      5-min Rain = 0
KNOR 100120Z 07007KT 16/04 A3001 RMK A01 T01630036  RH  044%=      5-min Rain = 0
KNOR 100125Z 07007KT 16/04 A3001 RMK A01 T01600036  RH  044%=      5-min Rain = 0
KNOR 100130Z 07007KT 16/04 A3001 RMK A01 T01590036  RH  045%=      5-min Rain = 0
KNOR 100135Z 07007KT 16/04 A3001 RMK A01 T01560036  RH  045%=      5-min Rain = 0
KNOR 100140Z 07008KT 15/03 A3002 RMK A01 T01540034  RH  046%=      5-min Rain = 0
KNOR 100145Z 07009KT 15/03 A3002 RMK A01 T01530033  RH  045%=      5-min Rain = 0
KNOR 100150Z 07009KT 15/03 A3002 RMK A01 T01520031  RH  045%=      5-min Rain = 0
KNOR 100155Z 06008G13KT 15/03 A3003 RMK A01 T01500030  RH  045%=      5-min Rain = 0
KNOR 100200Z 06008KT 15/03 A3003 RMK A01 T01500029  RH  045%=      5-min Rain = 0
KNOR 100205Z 07008KT 15/03 A3003 RMK A01 T01490028  RH  045%=      5-min Rain = 0
KNOR 100210Z 07008KT 15/03 A3003 RMK A01 T01470028  RH  046%=      5-min Rain = 0
KNOR 100215Z 07008KT 14/03 A3004 RMK A01 T01440028  RH  046%=      5-min Rain = 0
KNOR 100220Z 06007KT 14/03 A3004 RMK A01 T01430028  RH  047%=      5-min Rain = 0
KNOR 100225Z 06007KT 14/03 A3005 RMK A01 T01410028  RH  047%=      5-min Rain = 0
KNOR 100230Z 06008KT 14/03 A3005 RMK A01 T01400029  RH  048%=      5-min Rain = 0
KNOR 100235Z 05008KT 14/03 A3006 RMK A01 T01390029  RH  048%=      5-min Rain = 0
KNOR 100240Z 06008KT 14/03 A3006 RMK A01 T01390028  RH  048%=      5-min Rain = 0
KNOR 100245Z 06009KT 14/03 A3007 RMK A01 T01390028  RH  048%=      5-min Rain = 0
KNOR 100250Z 06008KT 14/03 A3007 RMK A01 T01380028  RH  048%=      5-min Rain = 0
KNOR 100255Z 06007KT 14/03 A3007 RMK A01 T01350029  RH  049%=      5-min Rain = 0
KNOR 100300Z 06007KT 14/03 A3007 RMK A01 T01350028  RH  049%=      5-min Rain = 0
KNOR 100305Z 06007KT 13/03 A3007 RMK A01 T01340028  RH  049%=      5-min Rain = 0
KNOR 100310Z 06007KT 13/03 A3007 RMK A01 T01320028  RH  050%=      5-min Rain = 0
KNOR 100315Z 07007KT 13/03 A3007 RMK A01 T01310027  RH  050%=      5-min Rain = 0
KNOR 100320Z 07006KT 13/03 A3008 RMK A01 T01280027  RH  051%=      5-min Rain = 0
KNOR 100325Z 07007KT 13/03 A3007 RMK A01 T01250027  RH  052%=      5-min Rain = 0
KNOR 100330Z 07007KT 12/03 A3008 RMK A01 T01240026  RH  052%=      5-min Rain = 0
KNOR 100335Z 06008KT 12/03 A3008 RMK A01 T01240025  RH  052%=      5-min Rain = 0
KNOR 100340Z 06010KT 13/02 A3008 RMK A01 T01250023  RH  050%=      5-min Rain = 0
KNOR 100345Z 06009KT 13/02 A3008 RMK A01 T01260021  RH  050%=      5-min Rain = 0
KNOR 100350Z 06009KT 13/02 A3008 RMK A01 T01250020  RH  049%=      5-min Rain = 0
KNOR 100355Z 07008KT 12/02 A3008 RMK A01 T01240020  RH  050%=      5-min Rain = 0
KNOR 100400Z 07008KT 12/02 A3008 RMK A01 T01220020  RH  050%=      5-min Rain = 0
KNOR 100405Z 06008KT 12/02 A3008 RMK A01 T01210020  RH  051%=      5-min Rain = 0
KNOR 100410Z 07007KT 12/02 A3008 RMK A01 T01190020  RH  052%=      5-min Rain = 0
KNOR 100415Z 07007KT 12/02 A3008 RMK A01 T01160020  RH  052%=      5-min Rain = 0
KNOR 100420Z 07007KT 12/02 A3008 RMK A01 T01160020  RH  052%=      5-min Rain = 0
KNOR 100425Z 07008KT 12/02 A3008 RMK A01 T01160019  RH  052%=      5-min Rain = 0
KNOR 100430Z 06008KT 12/02 A3008 RMK A01 T01150019  RH  052%=      5-min Rain = 0
KNOR 100435Z 06008KT 11/02 A3008 RMK A01 T01140019  RH  053%=      5-min Rain = 0
KNOR 100440Z 06007KT 11/02 A3008 RMK A01 T01110019  RH  054%=      5-min Rain = 0
KNOR 100445Z 06008KT 11/02 A3008 RMK A01 T01120017  RH  053%=      5-min Rain = 0
KNOR 100450Z 06008KT 11/02 A3009 RMK A01 T01130017  RH  052%=      5-min Rain = 0
KNOR 100455Z 06007KT 11/02 A3009 RMK A01 T01120016  RH  052%=      5-min Rain = 0

Page generated in 0.0161 seconds.